Onweer van: 24-07-2021 17:59 tot: 23:59 waarschuwing voor: Onweer niveau: Oranje info button

Tervuren markt Meer informatie Tervuren markt


waarschuwing voor Onweer Meer informatie blitzortung!


Bezoek onze andere website:

Meteotemplate

Home Weather Station

Saratoga


Lokaal brand risico:
CBI


Regionaal brand risico: Meer informatie



METAR rapporten vliegvelden

   
EBBR - Brussels
Gewijzigd: Jul 24 2021 6:20 pm
Light Thunderstorm, Regen, Licht bewolkt  
Light Thunderstorm, Regen, Licht bewolkt  
   Wind: Oosten 7.4 km/h
Wind: Oosten 7.4 km/h
Temperatuur: 22°C
Dauwpunt: 19°C
Vochtigheid: 83%
Barometer: 1009 mb
Bewolking: Licht bewolkt
Zicht: meer dan 10 km
Bewolking: Licht bewolkt 975.4 m
EBBR 241620Z 09004KT 070V130 9999 -TSRA FEW032CB 22/19 Q1009 TEMPO 2500 SHRA TSRA
EBAW - Antwerp
Gewijzigd: Jul 24 2021 6:20 pm
Licht bewolkt  
Licht bewolkt  
   Wind: Oosten 9.3 km/h
Wind: Oosten 9.3 km/h
Temperatuur: 21°C
Dauwpunt: 18°C
Vochtigheid: 83%
Barometer: 1008 mb
Bewolking: Licht bewolkt
Zicht: meer dan 10 km
Bewolking: Licht bewolkt 426.7 m
EBAW 241620Z 08005KT 040V100 9999 FEW014 21/18 Q1008 TEMPO 4800 SHRA
EHBK - Maastricht
Gewijzigd: Jul 24 2021 6:25 pm
Gedeeltelijk bewolkt  
Gedeeltelijk bewolkt  
   Wind: Zuiden 5.6 km/h
Wind: Zuiden 5.6 km/h
Temperatuur: 21°C
Dauwpunt: 18°C
Vochtigheid: 83%
Barometer: 1008 mb
Bewolking: Gedeeltelijk bewolkt
Zicht: meer dan 10 km
Bewolking: Gedeeltelijk bewolkt
EHBK 241625Z AUTO 18003KT 120V220 9999 NSC 21/18 Q1008 NOSIG
EDLV - Nijmegen
Gewijzigd: Jul 24 2021 6:20 pm
Helder  
Helder  
   Wind: WNW 7.4 km/h
Wind: WNW 7.4 km/h
Temperatuur: 21°C
Dauwpunt: 17°C
Vochtigheid: 78%
Barometer: 1009 mb
Zicht: meer dan 10 km
Bewolking: Helder
EDLV 241620Z 29004KT 270V330 CAVOK 21/17 Q1009
EHRD - Rotterdam
Gewijzigd: Jul 24 2021 6:25 pm
Wat regen mogelijk, Grotendeels bewolkt  
Wat regen mogelijk, Grotendeels bewolkt  
   Wind: NO 9.3 km/h
Wind: NO 9.3 km/h
Temperatuur: 19°C
Dauwpunt: 18°C
Vochtigheid: 94%
Barometer: 1009 mb
Bewolking: Grotendeels bewolkt
Zicht: 5 km
Bewolking: Licht bewolkt 304.8 m,
Grotendeels bewolkt 457.2 m
EHRD 241625Z AUTO 04005KT 4600 -RA FEW010 BKN015CB 19/18 Q1009 RERA BECMG 9999 NSW
 

Script ontwikkeld door  Saratoga-weather.org Aangepast voor de template door  Weerstation Leuven

U vindt ons ook hier:

Het Weer Aktueel

UK Metoffice

European Weather Network

WeatherCloud

Weather Underground

Benelux Weer Netwerk

AWEKAS

Citizen Weather Observer Program (CWOP)

HAMweather, WeatherForYou, PWS Weather

Apparatuur in gebruik:

Weerstation
Davis VP2

Weerprogramma
Meteobridge

Weercomputer
Meteobridge NANO

Davis VP2

Meteobridge

Meteobridge NANO